KARB/ARB METAR and TAF weather

Enter ICAO airport designator
Station Type Date Time Source
KARB METAR 2019/12/12 11:53 UTC NOAA

KARB 121153Z AUTO 00000KT 8SM CLR M11/M14 A3054 RMK AO2 SLP358 I6000 T11111139 11100 21139 56003


Station Type Date Time Source
KARB Decoded METAR 2019/12/12 11:53 UTC NOAA

ANN ARBOR MUNICIPAL AIRPORT, MI, United States (KARB) 42-13N 083-45W 251M
Dec 12, 2019 - 06:53 AM EST / 2019.12.12 1153 UTC
Wind: Calm:0
Visibility: 8 mile(s):0
Sky conditions: clear
Temperature: 12.0 F (-11.1 C)
Dew Point: 7.0 F (-13.9 C)
Relative Humidity: 79%
Pressure (altimeter): 30.54 in. Hg (1034 hPa)
Pressure tendency: 0.01 inches (0.3 hPa) lower than three hours ago
ob: KARB 121153Z AUTO 00000KT 8SM CLR M11/M14 A3054 RMK AO2 SLP358 I6000 T11111139 11100 21139 56003
cycle: 12

Station Type Date Time Source
KARB TAF UTC NOAA

Error!

Example: see airport list